createdAt,value
2019-05-11T00:01:49.659Z,13.68
2019-05-11T00:04:18.278Z,13.61
2019-05-11T00:06:46.930Z,13.58
2019-05-11T00:09:15.546Z,13.41
2019-05-11T00:11:44.249Z,13.42
2019-05-11T00:14:12.882Z,13.42
2019-05-11T00:16:41.477Z,13.33
2019-05-11T00:19:10.105Z,13.27
2019-05-11T00:21:38.698Z,13.38
2019-05-11T00:24:07.314Z,13.46
2019-05-11T00:26:35.920Z,13.37
2019-05-11T00:29:04.600Z,13.32
2019-05-11T00:31:33.210Z,13.27
2019-05-11T00:34:01.832Z,13.47
2019-05-11T00:36:30.426Z,13.43
2019-05-11T00:38:59.152Z,13.17
2019-05-11T00:41:27.763Z,13.15
2019-05-11T00:43:56.413Z,13.19
2019-05-11T00:46:25.017Z,13.18
2019-05-11T00:48:53.645Z,13.26
2019-05-11T00:51:22.247Z,13.19
2019-05-11T00:53:50.865Z,13.28
2019-05-11T00:56:19.664Z,13.14
2019-05-11T00:58:50.908Z,13.12
2019-05-11T01:01:18.582Z,12.97
2019-05-11T01:03:47.210Z,12.97
2019-05-11T01:06:15.823Z,12.82
2019-05-11T01:08:44.451Z,12.69
2019-05-11T01:11:13.053Z,12.59
2019-05-11T01:13:41.692Z,12.45
2019-05-11T01:16:10.297Z,12.41
2019-05-11T01:18:38.928Z,12.43
2019-05-11T01:21:07.606Z,12.50
2019-05-11T01:23:36.230Z,12.47
2019-05-11T01:26:04.910Z,12.45
2019-05-11T01:28:33.518Z,12.43
2019-05-11T01:31:02.139Z,12.30
2019-05-11T01:33:30.740Z,12.41
2019-05-11T01:35:59.353Z,12.40
2019-05-11T01:38:27.942Z,12.35
2019-05-11T01:40:59.087Z,12.35
2019-05-11T01:43:26.893Z,12.38
2019-05-11T01:45:55.568Z,12.35
2019-05-11T01:48:24.170Z,12.28
2019-05-11T01:50:52.787Z,12.29
2019-05-11T01:53:21.408Z,12.21
2019-05-11T01:55:50.042Z,12.23
2019-05-11T01:58:18.643Z,12.20
2019-05-11T02:00:47.264Z,12.17
2019-05-11T02:03:15.886Z,12.14
2019-05-11T02:05:44.501Z,12.13
2019-05-11T02:08:13.132Z,12.15
2019-05-11T02:10:41.807Z,12.05
2019-05-11T02:13:10.465Z,12.05
2019-05-11T02:15:39.101Z,12.11
2019-05-11T02:18:07.706Z,12.10
2019-05-11T02:20:36.376Z,12.19
2019-05-11T02:23:05.052Z,12.13
2019-05-11T02:25:33.668Z,12.10
2019-05-11T02:28:02.320Z,12.09
2019-05-11T02:30:30.984Z,12.07
2019-05-11T02:32:59.596Z,12.03
2019-05-11T02:35:28.216Z,11.99
2019-05-11T02:37:56.883Z,11.93
2019-05-11T02:40:25.689Z,11.94
2019-05-11T02:42:54.343Z,11.91
2019-05-11T02:45:38.044Z,11.82
2019-05-11T02:48:06.749Z,11.71
2019-05-11T02:50:36.773Z,11.55
2019-05-11T02:53:05.489Z,11.52
2019-05-11T02:55:35.221Z,11.59
2019-05-11T02:58:04.635Z,11.42
2019-05-11T03:00:41.597Z,11.45
2019-05-11T03:03:10.422Z,11.46
2019-05-11T03:05:39.105Z,11.41
2019-05-11T03:08:07.835Z,11.46
2019-05-11T03:10:36.453Z,11.35
2019-05-11T03:13:05.160Z,11.40
2019-05-11T03:15:33.859Z,11.38
2019-05-11T03:18:02.482Z,11.36
2019-05-11T03:20:31.170Z,11.33
2019-05-11T03:22:59.932Z,11.32
2019-05-11T03:25:28.492Z,11.33
2019-05-11T03:27:57.133Z,11.29
2019-05-11T03:30:25.795Z,11.31
2019-05-11T03:32:54.397Z,11.23
2019-05-11T03:35:23.056Z,11.25
2019-05-11T03:37:51.642Z,11.24
2019-05-11T03:40:20.337Z,11.25
2019-05-11T03:42:48.969Z,11.31
2019-05-11T03:45:17.670Z,11.33
2019-05-11T03:47:48.688Z,11.25
2019-05-11T03:50:17.488Z,11.25
2019-05-11T03:52:46.191Z,11.20
2019-05-11T03:55:14.884Z,11.13
2019-05-11T03:57:43.524Z,11.17
2019-05-11T04:00:12.772Z,11.12
2019-05-11T04:02:41.453Z,11.16
2019-05-11T04:05:10.312Z,11.14
2019-05-11T04:07:38.931Z,11.14
2019-05-11T04:10:08.111Z,11.14
2019-05-11T04:12:36.826Z,11.04
2019-05-11T04:15:05.744Z,11.01
2019-05-11T04:17:34.373Z,11.04
2019-05-11T04:20:03.063Z,11.03
2019-05-11T04:22:31.711Z,11.04
2019-05-11T04:25:00.327Z,11.03
2019-05-11T04:27:28.996Z,11.12
2019-05-11T04:29:57.623Z,11.06
2019-05-11T04:32:26.510Z,11.00
2019-05-11T04:34:55.160Z,11.05
2019-05-11T04:37:23.789Z,11.11
2019-05-11T04:39:52.479Z,11.09
2019-05-11T04:42:21.185Z,11.06
2019-05-11T04:44:52.265Z,11.11
2019-05-11T04:47:20.089Z,11.10
2019-05-11T04:49:48.732Z,11.14
2019-05-11T04:52:17.333Z,11.11
2019-05-11T04:54:45.946Z,11.09
2019-05-11T04:57:14.561Z,11.07
2019-05-11T04:59:43.179Z,11.11
2019-05-11T05:02:12.039Z,11.10
2019-05-11T05:04:40.676Z,11.12
2019-05-11T05:07:10.691Z,11.07
2019-05-11T05:09:42.930Z,11.19
2019-05-11T05:12:14.038Z,11.21
2019-05-11T05:14:40.304Z,11.20
2019-05-11T05:17:08.960Z,11.14
2019-05-11T05:19:37.717Z,11.09
2019-05-11T05:22:06.413Z,11.13
2019-05-11T05:24:35.063Z,11.20
2019-05-11T05:27:03.676Z,11.21
2019-05-11T05:29:32.295Z,11.28
2019-05-11T05:32:00.913Z,11.13
2019-05-11T05:34:29.541Z,11.16
2019-05-11T05:36:58.278Z,11.17
2019-05-11T05:39:26.933Z,11.26
2019-05-11T05:41:57.479Z,11.27
2019-05-11T05:44:27.832Z,11.27
2019-05-11T05:46:56.603Z,11.27
2019-05-11T05:49:25.224Z,11.17
2019-05-11T05:51:57.819Z,11.19
2019-05-11T05:54:24.210Z,11.14
2019-05-11T05:56:52.828Z,11.19
2019-05-11T05:59:21.430Z,11.27
2019-05-11T06:01:50.048Z,11.30
2019-05-11T06:04:18.679Z,11.33
2019-05-11T06:06:47.300Z,11.33
2019-05-11T06:09:15.900Z,11.29
2019-05-11T06:11:44.515Z,11.35
2019-05-11T06:14:13.210Z,11.36
2019-05-11T06:16:41.834Z,11.41
2019-05-11T06:19:10.439Z,11.40
2019-05-11T06:21:39.146Z,11.36
2019-05-11T06:24:08.634Z,11.27
2019-05-11T06:26:37.833Z,11.35
2019-05-11T06:29:06.473Z,11.34
2019-05-11T06:31:35.106Z,11.44
2019-05-11T06:34:03.760Z,11.46
2019-05-11T06:36:32.471Z,11.44
2019-05-11T06:39:01.155Z,11.43
2019-05-11T06:41:29.855Z,11.38
2019-05-11T06:44:01.969Z,11.42
2019-05-11T06:46:28.880Z,11.44
2019-05-11T06:48:57.488Z,11.43
2019-05-11T06:51:26.178Z,11.52
2019-05-11T06:53:54.775Z,11.54
2019-05-11T06:56:23.408Z,11.54
2019-05-11T06:58:52.010Z,11.53
2019-05-11T07:01:20.631Z,11.58
2019-05-11T07:03:49.338Z,11.53
2019-05-11T07:06:17.972Z,11.53
2019-05-11T07:08:46.644Z,11.56
2019-05-11T07:11:15.289Z,11.59
2019-05-11T07:13:43.910Z,11.63
2019-05-11T07:16:12.641Z,11.66
2019-05-11T07:18:41.419Z,11.61
2019-05-11T07:21:10.038Z,11.58
2019-05-11T07:23:38.924Z,11.67
2019-05-11T07:26:07.770Z,11.63
2019-05-11T07:28:36.486Z,11.58
2019-05-11T07:31:05.234Z,11.60
2019-05-11T07:33:33.836Z,11.68
2019-05-11T07:36:02.450Z,11.78
2019-05-11T07:38:31.136Z,11.77
2019-05-11T07:40:59.839Z,11.68
2019-05-11T07:43:28.848Z,11.68
2019-05-11T07:45:58.485Z,11.67
2019-05-11T07:48:27.893Z,11.74
2019-05-11T07:50:58.462Z,11.76
2019-05-11T07:53:27.977Z,11.77
2019-05-11T07:55:57.705Z,11.72
2019-05-11T07:58:28.543Z,11.71
2019-05-11T08:00:58.163Z,11.74
2019-05-11T08:03:28.344Z,11.82
2019-05-11T08:05:58.238Z,11.92
2019-05-11T08:08:28.388Z,11.86
2019-05-11T08:10:58.651Z,12.04
2019-05-11T08:13:28.215Z,11.98
2019-05-11T08:15:57.870Z,12.02
2019-05-11T08:18:28.243Z,12.18
2019-05-11T08:20:58.302Z,12.15
2019-05-11T08:23:28.490Z,12.22
2019-05-11T08:25:58.087Z,12.22
2019-05-11T08:28:28.761Z,12.21
2019-05-11T08:30:58.031Z,12.29
2019-05-11T08:33:28.370Z,12.31
2019-05-11T08:35:58.251Z,12.34
2019-05-11T08:38:28.537Z,12.28
2019-05-11T08:40:59.060Z,12.30
2019-05-11T08:43:28.474Z,12.32
2019-05-11T08:45:57.915Z,12.31
2019-05-11T08:48:28.357Z,12.27
2019-05-11T08:50:58.180Z,12.31
2019-05-11T08:53:28.427Z,12.33
2019-05-11T08:55:58.820Z,12.24
2019-05-11T08:58:27.946Z,12.31
2019-05-11T09:00:58.281Z,12.43
2019-05-11T09:03:28.440Z,12.39
2019-05-11T09:05:58.062Z,12.24
2019-05-11T09:08:28.281Z,12.27
2019-05-11T09:10:58.231Z,12.31
2019-05-11T09:13:27.968Z,12.37
2019-05-11T09:15:58.860Z,12.41
2019-05-11T09:18:28.002Z,12.52
2019-05-11T09:20:57.728Z,12.56
2019-05-11T09:23:36.300Z,12.49
2019-05-11T09:25:58.439Z,12.51
2019-05-11T09:28:29.519Z,12.64
2019-05-11T09:30:57.932Z,12.71
2019-05-11T09:33:28.308Z,12.70
2019-05-11T09:35:58.357Z,12.70
2019-05-11T09:38:27.819Z,12.59
2019-05-11T09:40:58.552Z,12.67
2019-05-11T09:43:28.397Z,12.69
2019-05-11T09:45:58.269Z,12.82
2019-05-11T09:48:28.399Z,12.90
2019-05-11T09:50:58.790Z,12.81
2019-05-11T09:53:28.421Z,12.82
2019-05-11T09:55:58.681Z,12.82
2019-05-11T09:58:28.120Z,12.87
2019-05-11T10:00:58.584Z,12.86
2019-05-11T10:03:28.127Z,12.67
2019-05-11T10:05:58.016Z,12.61
2019-05-11T10:08:28.657Z,12.62
2019-05-11T10:10:58.057Z,12.66
2019-05-11T10:13:27.832Z,12.66
2019-05-11T10:16:04.579Z,12.67
2019-05-11T10:18:28.158Z,12.58
2019-05-11T10:20:58.675Z,12.64
2019-05-11T10:23:27.982Z,12.54
2019-05-11T10:25:58.583Z,12.56
2019-05-11T10:28:28.460Z,12.56
2019-05-11T10:30:57.897Z,12.47
2019-05-11T10:33:28.105Z,12.53
2019-05-11T10:35:58.779Z,12.61
2019-05-11T10:38:28.561Z,12.66
2019-05-11T10:40:58.182Z,12.78
2019-05-11T10:43:28.831Z,12.81
2019-05-11T10:45:58.827Z,12.91
2019-05-11T10:48:28.233Z,13.00
2019-05-11T10:50:57.630Z,13.04
2019-05-11T10:53:27.819Z,12.91
2019-05-11T10:55:58.181Z,12.91
2019-05-11T10:58:28.547Z,12.85
2019-05-11T11:00:58.227Z,12.79
2019-05-11T11:03:28.402Z,12.73
2019-05-11T11:05:58.055Z,12.61
2019-05-11T11:08:27.854Z,12.59
2019-05-11T11:10:58.558Z,12.52
2019-05-11T11:13:28.144Z,12.59
2019-05-11T11:15:58.158Z,12.68
2019-05-11T11:18:28.764Z,12.70
2019-05-11T11:20:58.138Z,12.71
2019-05-11T11:23:28.469Z,12.82
2019-05-11T11:25:58.565Z,12.86
2019-05-11T11:28:28.021Z,12.77
2019-05-11T11:30:58.421Z,12.72
2019-05-11T11:33:27.728Z,12.69
2019-05-11T11:35:57.963Z,12.81
2019-05-11T11:38:28.525Z,12.78
2019-05-11T11:40:58.702Z,12.82
2019-05-11T11:43:28.738Z,12.77
2019-05-11T11:45:58.057Z,12.78
2019-05-11T11:48:27.990Z,12.67
2019-05-11T11:50:58.519Z,12.60
2019-05-11T11:53:27.925Z,12.54
2019-05-11T11:55:58.636Z,12.60
2019-05-11T11:58:27.735Z,12.51
2019-05-11T12:00:58.722Z,12.46
2019-05-11T12:03:27.698Z,12.45
2019-05-11T12:05:58.144Z,12.47
2019-05-11T12:08:28.224Z,12.38
2019-05-11T12:10:58.862Z,12.34
2019-05-11T12:13:29.614Z,12.37
2019-05-11T12:15:58.459Z,12.35
2019-05-11T12:18:28.644Z,12.33
2019-05-11T12:20:58.609Z,12.32
2019-05-11T12:23:28.486Z,12.18
2019-05-11T12:25:57.996Z,12.08
2019-05-11T12:28:27.631Z,12.04
2019-05-11T12:30:58.444Z,12.14
2019-05-11T12:33:27.939Z,12.16
2019-05-11T12:35:58.698Z,12.09
2019-05-11T12:38:27.730Z,12.12
2019-05-11T12:40:57.978Z,12.08
2019-05-11T12:43:27.711Z,12.06
2019-05-11T12:45:58.569Z,12.02
2019-05-11T12:48:28.471Z,12.03
2019-05-11T12:50:58.778Z,12.03
2019-05-11T12:53:28.059Z,11.97
2019-05-11T12:55:58.842Z,11.91
2019-05-11T12:58:28.074Z,11.95
2019-05-11T13:00:58.471Z,11.95
2019-05-11T13:03:27.862Z,11.95
2019-05-11T13:05:58.585Z,11.98
2019-05-11T13:08:27.764Z,12.05
2019-05-11T13:10:58.442Z,12.07
2019-05-11T13:13:28.608Z,12.16
2019-05-11T13:15:58.485Z,12.22
2019-05-11T13:18:28.035Z,12.18
2019-05-11T13:20:58.824Z,12.18
2019-05-11T13:23:27.767Z,12.29
2019-05-11T13:25:58.510Z,12.32
2019-05-11T13:28:28.389Z,12.36
2019-05-11T13:30:58.040Z,12.38
2019-05-11T13:33:27.997Z,12.43
2019-05-11T13:35:57.860Z,12.40
2019-05-11T13:38:28.287Z,12.29
2019-05-11T13:40:59.102Z,12.30
2019-05-11T13:43:28.134Z,12.29
2019-05-11T13:45:58.410Z,12.18
2019-05-11T13:48:28.113Z,12.26
2019-05-11T13:50:58.242Z,12.28
2019-05-11T13:53:27.601Z,12.35
2019-05-11T13:55:58.527Z,12.43
2019-05-11T13:58:27.780Z,12.35
2019-05-11T14:00:58.538Z,12.26
2019-05-11T14:03:27.789Z,12.28
2019-05-11T14:05:58.191Z,12.31
2019-05-11T14:08:33.624Z,12.43
2019-05-11T14:11:08.581Z,12.39
2019-05-11T14:13:41.540Z,12.28
2019-05-11T14:16:11.359Z,12.21
2019-05-11T14:18:41.448Z,12.21
2019-05-11T14:21:10.308Z,12.25
2019-05-11T14:23:39.937Z,12.26
2019-05-11T14:26:13.544Z,12.27
2019-05-11T14:28:42.591Z,12.35
2019-05-11T14:31:13.302Z,12.34
2019-05-11T14:33:42.392Z,12.38
2019-05-11T14:36:18.041Z,12.31
2019-05-11T14:38:48.677Z,12.44
2019-05-11T14:41:18.931Z,12.60
2019-05-11T14:43:53.170Z,12.75
2019-05-11T14:46:23.965Z,12.76
2019-05-11T14:48:58.532Z,12.86
2019-05-11T14:51:28.401Z,12.90
2019-05-11T14:53:59.503Z,12.91
2019-05-11T14:56:31.005Z,12.87
2019-05-11T14:59:02.206Z,12.90
2019-05-11T15:01:32.865Z,12.82
2019-05-11T15:04:08.790Z,12.72
2019-05-11T15:06:40.282Z,12.57
2019-05-11T15:09:12.671Z,12.48
2019-05-11T15:11:41.516Z,12.49
2019-05-11T15:14:13.242Z,12.56
2019-05-11T15:16:42.853Z,12.52
2019-05-11T15:19:14.086Z,12.51
2019-05-11T15:21:47.481Z,12.55
2019-05-11T15:24:18.600Z,12.49
2019-05-11T15:26:51.653Z,12.38
2019-05-11T15:29:22.313Z,12.41
2019-05-11T15:32:22.163Z,12.38
2019-05-11T15:34:50.786Z,12.38
2019-05-11T15:37:19.410Z,12.33
2019-05-11T15:39:48.434Z,12.24
2019-05-11T15:42:19.783Z,12.19
2019-05-11T15:44:48.420Z,12.22
2019-05-11T15:47:17.142Z,12.08
2019-05-11T15:49:48.050Z,12.01
2019-05-11T15:52:18.620Z,11.93
2019-05-11T15:54:46.568Z,11.87
2019-05-11T15:57:17.803Z,11.75
2019-05-11T15:59:48.006Z,11.76
2019-05-11T16:02:17.844Z,11.70
2019-05-11T16:04:49.126Z,11.63
2019-05-11T16:07:18.653Z,11.56
2019-05-11T16:09:48.675Z,11.49
2019-05-11T16:12:18.171Z,11.53
2019-05-11T16:14:48.567Z,11.48
2019-05-11T16:17:17.372Z,11.47
2019-05-11T16:19:46.015Z,11.51
2019-05-11T16:22:17.828Z,11.48
2019-05-11T16:24:44.962Z,11.55
2019-05-11T16:27:13.665Z,11.56
2019-05-11T16:29:42.280Z,11.63
2019-05-11T16:32:10.885Z,11.59
2019-05-11T16:34:39.507Z,11.60
2019-05-11T16:37:10.207Z,11.65
2019-05-11T16:39:38.631Z,11.57
2019-05-11T16:42:08.535Z,11.57
2019-05-11T16:44:37.889Z,11.58
2019-05-11T16:47:07.879Z,11.66
2019-05-11T16:49:38.427Z,11.70
2019-05-11T16:52:07.748Z,11.68
2019-05-11T16:54:38.747Z,11.69
2019-05-11T16:57:08.627Z,11.69
2019-05-11T16:59:39.628Z,11.68
2019-05-11T17:02:08.328Z,11.68
2019-05-11T17:04:39.659Z,11.63
2019-05-11T17:07:07.602Z,11.63
2019-05-11T17:09:37.866Z,11.66
2019-05-11T17:12:08.600Z,11.54
2019-05-11T17:14:39.861Z,11.51
2019-05-11T17:17:08.515Z,11.52
2019-05-11T17:19:45.419Z,11.54
2019-05-11T17:22:08.317Z,11.49
2019-05-11T17:24:37.909Z,11.49
2019-05-11T17:27:08.840Z,11.43
2019-05-11T17:29:38.137Z,11.42
2019-05-11T17:32:08.614Z,11.40
2019-05-11T17:34:38.129Z,11.31
2019-05-11T17:37:08.850Z,11.34
2019-05-11T17:39:38.597Z,11.33
2019-05-11T17:42:09.009Z,11.39
2019-05-11T17:44:37.955Z,11.28
2019-05-11T17:47:08.405Z,11.24
2019-05-11T17:49:38.334Z,11.21
2019-05-11T17:52:08.109Z,11.20
2019-05-11T17:54:38.359Z,11.21
2019-05-11T17:57:07.339Z,11.19
2019-05-11T17:59:38.490Z,11.26
2019-05-11T18:02:06.650Z,11.20
2019-05-11T18:04:35.332Z,11.14
2019-05-11T18:07:04.090Z,11.17
2019-05-11T18:09:32.688Z,11.17
2019-05-11T18:12:01.307Z,11.17
2019-05-11T18:14:29.909Z,11.15
2019-05-11T18:16:59.082Z,11.11
2019-05-11T18:19:29.427Z,11.16
2019-05-11T18:21:58.194Z,11.11
2019-05-11T18:24:28.729Z,11.08
2019-05-11T18:26:59.434Z,11.11
2019-05-11T18:29:31.344Z,11.13
2019-05-11T18:32:10.580Z,11.11
2019-05-11T18:34:39.888Z,11.04
2019-05-11T18:37:08.835Z,11.14
2019-05-11T18:39:38.413Z,11.16
2019-05-11T18:42:08.335Z,11.18
2019-05-11T18:44:37.965Z,11.13
2019-05-11T18:47:08.818Z,11.11
2019-05-11T18:49:39.711Z,11.15
2019-05-11T18:52:13.332Z,11.16
2019-05-11T18:54:43.038Z,11.13
2019-05-11T18:57:18.721Z,11.08
2019-05-11T18:59:48.442Z,11.00
2019-05-11T19:02:21.547Z,11.09
2019-05-11T19:04:54.201Z,11.12
2019-05-11T19:07:33.791Z,11.07
2019-05-11T19:10:03.716Z,11.12
2019-05-11T19:12:38.123Z,11.15
2019-05-11T19:15:07.823Z,11.11
2019-05-11T19:17:41.712Z,11.17
2019-05-11T19:20:14.613Z,11.02
2019-05-11T19:22:46.070Z,10.98
2019-05-11T19:25:20.500Z,11.01
2019-05-11T19:27:51.589Z,11.02
2019-05-11T19:30:24.484Z,11.12
2019-05-11T19:32:58.985Z,11.07
2019-05-11T19:35:30.048Z,11.16
2019-05-11T19:38:00.120Z,11.18
2019-05-11T19:40:30.642Z,11.11
2019-05-11T19:43:05.280Z,11.15
2019-05-11T19:45:34.981Z,11.21
2019-05-11T19:48:16.360Z,11.08
2019-05-11T19:51:03.658Z,10.95
2019-05-11T19:53:22.017Z,10.85
2019-05-11T19:55:53.702Z,10.78
2019-05-11T19:58:24.499Z,10.68
2019-05-11T20:00:57.968Z,10.71
2019-05-11T20:03:28.572Z,10.79
2019-05-11T20:05:59.782Z,10.81
2019-05-11T20:08:42.390Z,10.82
2019-05-11T20:11:14.529Z,10.61
2019-05-11T20:13:43.729Z,10.47
2019-05-11T20:16:18.591Z,10.29
2019-05-11T20:18:48.023Z,10.37
2019-05-11T20:21:22.674Z,10.30
2019-05-11T20:23:52.753Z,10.22
2019-05-11T20:26:50.529Z,10.20
2019-05-11T20:29:20.203Z,10.15
2019-05-11T20:31:54.018Z,10.02
2019-05-11T20:34:29.976Z,10.09
2019-05-11T20:37:02.492Z,9.95
2019-05-11T20:39:34.882Z,9.82
2019-05-11T20:42:05.774Z,9.78
2019-05-11T20:44:39.027Z,9.67
2019-05-11T20:47:18.039Z,9.52
2019-05-11T20:49:48.265Z,9.46
2019-05-11T20:52:21.928Z,9.49
2019-05-11T20:54:53.835Z,9.38
2019-05-11T20:57:30.317Z,9.14
2019-05-11T21:00:02.650Z,9.14
2019-05-11T21:02:32.721Z,9.04
2019-05-11T21:05:04.781Z,8.94
2019-05-11T21:07:34.227Z,8.85
2019-05-11T21:10:08.653Z,8.86
2019-05-11T21:12:40.405Z,8.82
2019-05-11T21:15:11.754Z,8.62
2019-05-11T21:17:45.230Z,8.56
2019-05-11T21:20:17.911Z,8.72
2019-05-11T21:22:48.633Z,8.71
2019-05-11T21:25:21.731Z,8.65
2019-05-11T21:27:53.495Z,8.52
2019-05-11T21:30:22.971Z,8.53
2019-05-11T21:35:48.996Z,8.65
2019-05-11T21:38:19.762Z,8.52
2019-05-11T21:40:52.629Z,8.40
2019-05-11T21:43:27.618Z,8.47
2019-05-11T21:46:02.035Z,8.27
2019-05-11T21:48:33.584Z,8.31
2019-05-11T21:51:04.678Z,8.40
2019-05-11T21:53:34.035Z,8.20
2019-05-11T21:56:03.955Z,8.15
2019-05-11T21:58:37.631Z,8.07
2019-05-11T22:01:20.530Z,8.14
2019-05-11T22:03:51.362Z,8.08
2019-05-11T22:06:21.327Z,7.93
2019-05-11T22:08:53.117Z,7.79
2019-05-11T22:11:28.458Z,7.82
2019-05-11T22:14:11.987Z,7.86
2019-05-11T22:16:41.983Z,7.99
2019-05-11T22:19:17.950Z,8.00
2019-05-11T22:22:02.603Z,8.06
2019-05-11T22:24:33.360Z,7.88
2019-05-11T22:27:03.717Z,7.98
2019-05-11T22:29:37.867Z,7.82
2019-05-11T22:32:09.272Z,7.71
2019-05-11T22:34:39.233Z,7.60
2019-05-11T22:37:09.985Z,7.56
2019-05-11T22:39:41.123Z,7.52
2019-05-11T22:42:11.878Z,7.45
2019-05-11T22:44:44.619Z,7.41
2019-05-11T22:47:17.816Z,7.43
2019-05-11T22:49:52.822Z,7.29
2019-05-11T22:52:33.852Z,7.25
2019-05-11T22:55:00.256Z,7.30
2019-05-11T22:57:29.739Z,7.31
2019-05-11T22:59:58.725Z,7.17
2019-05-11T23:02:32.790Z,7.39
2019-05-11T23:05:02.136Z,7.53
2019-05-11T23:07:35.145Z,7.44
2019-05-11T23:10:08.592Z,7.42
2019-05-11T23:12:40.457Z,7.45
2019-05-11T23:15:31.399Z,7.45
2019-05-11T23:18:00.375Z,7.41
2019-05-11T23:20:33.958Z,7.36
2019-05-11T23:23:08.760Z,7.31
2019-05-11T23:25:50.255Z,7.37
2019-05-11T23:28:22.531Z,7.34
2019-05-11T23:30:58.408Z,7.37
2019-05-11T23:33:29.500Z,7.26
2019-05-11T23:36:02.776Z,7.15
2019-05-11T23:38:34.263Z,7.22
2019-05-11T23:41:08.285Z,7.23
2019-05-11T23:43:40.377Z,7.20
2019-05-11T23:46:11.031Z,7.13
2019-05-11T23:48:48.679Z,7.13
2019-05-11T23:51:21.787Z,7.11
2019-05-11T23:53:54.031Z,7.11
2019-05-11T23:56:28.351Z,6.93
2019-05-11T23:59:01.186Z,6.91
